Time;durP1;ratioP1;P1;durP2;ratioP2;P2;SDS_P1;SDS_P2;PMS_P1;PMS_P2;Temp;Humidity;BMP_temperature;BMP_pressure;BME280_temperature;BME280_humidity;BME280_pressure;Samples;Min_cycle;Max_cycle;Signal;HPM_P1;HPM_P2
2023/05/13 00:02:18;;;;;;;2.90;2.10;;;;;;;17.64;40.01;100357.00;104518;1254;60791;-60
2023/05/13 00:04:46;;;;;;;2.70;2.30;;;;;;;17.73;39.70;100357.86;104769;1253;63191;-60
2023/05/13 00:07:13;;;;;;;2.60;2.40;;;;;;;17.73;39.90;100355.94;104790;1253;73933;-60
2023/05/13 00:09:40;;;;;;;2.70;2.10;;;;;;;17.72;39.62;100364.35;104626;1255;70947;-60
2023/05/13 00:12:07;;;;;;;4.60;2.60;;;;;;;17.73;39.96;100363.92;104611;1253;72483;-60
2023/05/13 00:14:34;;;;;;;2.50;2.30;;;;;;;17.73;39.27;100363.90;104538;1256;60888;-61
2023/05/13 00:17:03;;;;;;;3.00;2.70;;;;;;;17.71;39.82;100364.71;104503;1253;60529;-64
2023/05/13 00:19:30;;;;;;;2.80;2.50;;;;;;;17.70;40.23;100364.41;104559;1253;75743;-60
2023/05/13 00:21:57;;;;;;;3.20;2.50;;;;;;;17.67;40.21;100363.39;104544;1257;70914;-60
2023/05/13 00:24:25;;;;;;;3.40;2.50;;;;;;;17.63;40.00;100364.33;104486;1253;72857;-60
2023/05/13 00:26:52;;;;;;;2.70;2.50;;;;;;;17.55;40.37;100363.93;104398;1256;61698;-60
2023/05/13 00:29:20;;;;;;;4.10;2.60;;;;;;;17.48;40.65;100361.88;104536;1257;60610;-61
2023/05/13 00:31:47;;;;;;;4.10;2.60;;;;;;;17.42;40.82;100361.90;104692;1253;75578;-61
2023/05/13 00:34:15;;;;;;;3.60;2.40;;;;;;;17.37;40.80;100361.65;104470;1256;69220;-61
2023/05/13 00:36:43;;;;;;;4.50;2.50;;;;;;;17.34;40.90;100362.03;104631;1258;72827;-60
2023/05/13 00:39:10;;;;;;;2.80;2.60;;;;;;;17.28;41.09;100360.05;104735;1256;60529;-61
2023/05/13 00:41:37;;;;;;;2.10;1.90;;;;;;;17.23;41.17;100359.62;104859;1251;60817;-60
2023/05/13 00:44:05;;;;;;;3.80;2.70;;;;;;;17.15;41.32;100357.44;104831;1257;73779;-61
2023/05/13 00:46:32;;;;;;;3.90;2.30;;;;;;;17.10;41.20;100364.83;104659;1256;70007;-61
2023/05/13 00:49:00;;;;;;;2.70;2.50;;;;;;;16.85;41.40;100365.55;104550;1253;73097;-61
2023/05/13 00:51:27;;;;;;;;;;;;;;;16.97;41.06;100362.20;104476;1253;60643;-61
2023/05/13 00:53:54;;;;;;;2.80;2.10;;;;;;;17.07;41.00;100361.08;104541;1256;60582;-62
2023/05/13 00:56:21;;;;;;;2.20;2.10;;;;;;;17.00;40.99;100361.48;104609;1256;75171;-61
2023/05/13 00:58:49;;;;;;;4.60;2.40;;;;;;;17.04;41.09;100363.23;104992;1256;70482;-60
2023/05/13 01:01:31;;;;;;;4.60;2.10;;;;;;;17.05;41.22;100361.93;104542;1256;73976;-60
2023/05/13 01:04:20;;;;;;;2.80;2.50;;;;;;;17.08;41.41;100366.16;104321;1253;60665;-60
2023/05/13 01:07:18;;;;;;;2.00;1.90;;;;;;;17.09;41.12;100363.29;104375;1253;60701;-61
2023/05/13 01:10:01;;;;;;;3.90;2.00;;;;;;;17.07;41.29;100359.49;104398;1256;75312;-60
2023/05/13 01:12:33;;;;;;;2.70;2.10;;;;;;;17.03;41.19;100362.37;104295;1259;69813;-60
2023/05/13 01:15:06;;;;;;;2.10;1.90;;;;;;;17.00;41.68;100365.74;104488;1256;73102;-60
2023/05/13 01:18:04;;;;;;;3.20;2.20;;;;;;;17.02;41.53;100366.88;104385;1267;60598;-59
2023/05/13 01:20:31;;;;;;;2.90;2.50;;;;;;;17.02;42.42;100363.50;104208;1269;60692;-60
2023/05/13 01:22:58;;;;;;;2.60;2.40;;;;;;;16.98;42.00;100363.59;104212;1266;73420;-60
2023/05/13 01:25:25;;;;;;;2.50;2.30;;;;;;;16.95;41.86;100361.98;104490;1256;70116;-60
2023/05/13 01:27:52;;;;;;;2.50;2.20;;;;;;;16.92;41.65;100364.60;104552;1268;72111;-60
2023/05/13 01:30:19;;;;;;;3.30;2.30;;;;;;;16.82;41.38;100362.50;104397;1266;61941;-61
2023/05/13 01:32:47;;;;;;;2.70;2.50;;;;;;;16.72;42.08;100366.44;104333;1269;60974;-60
2023/05/13 01:35:15;;;;;;;3.80;2.60;;;;;;;16.67;42.48;100366.54;104571;1257;75384;-60
2023/05/13 01:37:43;;;;;;;4.50;2.70;;;;;;;16.62;42.91;100366.14;104417;1256;69519;-60
2023/05/13 01:40:11;;;;;;;2.40;2.30;;;;;;;16.59;43.18;100365.39;104335;1266;72692;-60
2023/05/13 01:42:59;;;;;;;4.20;2.70;;;;;;;16.61;43.53;100363.35;104232;1266;62291;-62
2023/05/13 01:45:32;;;;;;;3.00;2.50;;;;;;;16.68;42.86;100368.05;104448;1251;60914;-60
2023/05/13 01:47:59;;;;;;;3.60;2.80;;;;;;;16.68;42.65;100368.08;104471;1251;76883;-60
2023/05/13 01:50:34;;;;;;;3.80;3.10;;;;;;;16.66;42.91;100366.45;104364;1256;69197;-60
2023/05/13 01:53:01;;;;;;;2.70;2.50;;;;;;;16.60;43.12;100367.11;104319;1256;75247;-60
2023/05/13 01:55:29;;;;;;;3.90;3.00;;;;;;;16.57;42.95;100363.93;104353;1256;61314;-60
2023/05/13 01:57:56;;;;;;;2.60;2.30;;;;;;;16.53;43.12;100364.17;104682;1253;62673;-60
2023/05/13 02:00:23;;;;;;;3.50;3.10;;;;;;;16.47;43.32;100362.37;104527;1258;75065;-61
2023/05/13 02:02:51;;;;;;;4.20;2.70;;;;;;;16.44;43.32;100364.13;104398;1253;70457;-61
2023/05/13 02:05:19;;;;;;;;;;;;;;;16.41;43.13;100362.50;104452;1267;72116;-61
2023/05/13 02:07:46;;;;;;;6.20;2.40;;;;;;;16.40;44.05;100362.77;104394;1257;60627;-61
2023/05/13 02:10:13;;;;;;;3.00;2.70;;;;;;;16.31;43.32;100363.06;104348;1257;60478;-60
2023/05/13 02:12:40;;;;;;;3.30;2.60;;;;;;;16.31;43.27;100363.95;104425;1261;73346;-60
2023/05/13 02:15:08;;;;;;;3.00;2.70;;;;;;;16.34;43.10;100363.24;104613;1257;69920;-61
2023/05/13 02:17:35;;;;;;;3.40;3.10;;;;;;;16.32;43.18;100365.50;104535;1265;72622;-61
2023/05/13 02:20:03;;;;;;;3.30;2.80;;;;;;;16.29;43.12;100369.16;104332;1254;60824;-61
2023/05/13 02:22:31;;;;;;;;;;;;;;;16.29;43.19;100370.11;104473;1254;61252;-61
2023/05/13 02:24:58;;;;;;;3.00;2.70;;;;;;;16.28;43.55;100372.79;104374;1257;73883;-61
2023/05/13 02:27:25;;;;;;;4.10;3.60;;;;;;;16.22;43.32;100371.00;104421;1266;71179;-61
2023/05/13 02:29:53;;;;;;;;;;;;;;;16.18;43.23;100375.10;104409;1255;72362;-61
2023/05/13 02:32:21;;;;;;;3.10;2.40;;;;;;;16.07;44.12;100378.33;104635;1251;60538;-61
2023/05/13 02:34:48;;;;;;;2.60;2.40;;;;;;;16.04;43.73;100377.65;104384;1270;59902;-61
2023/05/13 02:37:16;;;;;;;3.10;2.70;;;;;;;16.05;43.57;100375.24;104533;1254;74951;-61
2023/05/13 02:39:47;;;;;;;2.90;2.40;;;;;;;16.07;43.47;100382.42;104373;1257;69272;-61
2023/05/13 02:42:14;;;;;;;;;;;;;;;16.07;43.80;100379.04;104560;1256;73226;-62
2023/05/13 02:44:42;;;;;;;2.60;2.40;;;;;;;16.08;44.62;100384.48;104623;1256;61339;-61
2023/05/13 02:47:10;;;;;;;3.50;2.80;;;;;;;16.07;44.82;100382.91;104483;1251;60913;-61
2023/05/13 02:49:37;;;;;;;3.30;2.70;;;;;;;16.09;45.85;100384.07;104393;1266;75769;-61
2023/05/13 02:52:05;;;;;;;3.00;2.80;;;;;;;16.12;46.36;100386.92;104423;1263;70709;-60
2023/05/13 02:54:33;;;;;;;3.10;2.80;;;;;;;16.16;45.35;100391.66;104533;1265;74496;-61
2023/05/13 02:57:00;;;;;;;4.70;3.20;;;;;;;16.19;45.13;100393.12;104363;1253;61150;-61
2023/05/13 02:59:28;;;;;;;;;;;;;;;16.18;44.88;100390.67;104443;1256;60559;-61
2023/05/13 03:01:56;;;;;;;2.80;2.60;;;;;;;16.17;45.81;100391.94;104455;1266;72852;-60
2023/05/13 03:04:24;;;;;;;3.90;3.30;;;;;;;16.13;44.70;100393.40;104424;1256;70757;-61
2023/05/13 03:06:51;;;;;;;;;;;;;;;16.12;45.48;100391.72;104441;1256;74232;-60
2023/05/13 03:09:19;;;;;;;2.70;2.50;;;;;;;16.16;46.89;100393.77;104416;1256;60561;-60
2023/05/13 03:11:46;;;;;;;5.00;2.50;;;;;;;16.15;46.05;100395.09;104333;1265;62590;-60
2023/05/13 03:14:13;;;;;;;4.20;3.10;;;;;;;16.11;45.89;100397.43;104461;1256;74805;-61
2023/05/13 03:16:40;;;;;;;3.90;3.00;;;;;;;16.17;45.54;100397.97;104519;1268;69862;-60
2023/05/13 03:19:07;;;;;;;3.00;2.70;;;;;;;16.25;45.70;100401.39;104381;1272;73700;-60
2023/05/13 03:21:35;;;;;;;3.50;2.80;;;;;;;16.32;45.42;100402.48;104596;1251;62746;-61
2023/05/13 03:24:03;;;;;;;5.10;3.00;;;;;;;16.37;45.31;100403.23;104387;1250;61551;-61
2023/05/13 03:26:30;;;;;;;2.60;2.40;;;;;;;16.44;45.32;100403.54;104414;1256;74187;-61
2023/05/13 03:28:57;;;;;;;3.40;2.50;;;;;;;16.31;45.59;100403.73;104376;1261;70025;-61
2023/05/13 03:31:24;;;;;;;3.10;2.90;;;;;;;16.32;45.83;100406.35;104417;1260;72873;-61
2023/05/13 03:33:52;;;;;;;5.40;2.80;;;;;;;16.37;45.79;100409.10;104431;1269;62415;-61
2023/05/13 03:36:19;;;;;;;3.00;2.70;;;;;;;16.45;45.51;100411.46;104372;1266;61000;-61
2023/05/13 03:38:46;;;;;;;6.60;2.60;;;;;;;16.54;45.51;100415.61;104412;1252;73133;-61
2023/05/13 03:41:16;;;;;;;3.00;2.70;;;;;;;16.62;45.42;100418.16;104360;1266;69678;-61
2023/05/13 03:43:44;;;;;;;3.10;2.70;;;;;;;16.84;45.10;100415.52;104430;1269;74004;-61
2023/05/13 03:46:12;;;;;;;5.00;2.80;;;;;;;17.08;44.33;100424.28;104484;1256;61055;-62
2023/05/13 03:48:40;;;;;;;3.20;2.90;;;;;;;17.17;44.18;100422.50;104386;1257;60565;-64
2023/05/13 03:51:07;;;;;;;3.20;2.90;;;;;;;17.27;44.31;100431.67;104324;1272;76122;-61
2023/05/13 03:53:34;;;;;;;4.70;2.80;;;;;;;17.36;43.95;100432.39;104470;1250;70087;-61
2023/05/13 03:56:01;;;;;;;3.20;2.90;;;;;;;17.44;44.22;100433.73;104523;1256;73195;-62
2023/05/13 03:58:28;;;;;;;4.50;3.30;;;;;;;17.43;44.60;100434.14;104274;1264;61380;-61
2023/05/13 04:00:56;;;;;;;3.50;3.20;;;;;;;17.63;44.50;100434.71;105690;1251;60275;-62
2023/05/13 04:03:23;;;;;;;4.20;3.30;;;;;;;17.68;44.18;100439.70;105623;1259;73547;-62
2023/05/13 04:05:51;;;;;;;3.40;3.10;;;;;;;17.67;44.30;100439.45;104311;1256;69622;-62
2023/05/13 04:08:18;;;;;;;3.40;3.10;;;;;;;17.75;44.15;100438.26;104574;1257;73799;-61
2023/05/13 04:10:45;;;;;;;4.30;3.40;;;;;;;17.83;43.72;100437.08;104367;1256;62260;-61
2023/05/13 04:13:12;;;;;;;3.20;2.80;;;;;;;17.90;43.72;100438.96;104401;1266;60834;-62
2023/05/13 04:15:39;;;;;;;3.50;3.00;;;;;;;18.02;43.60;100443.90;104425;1256;73540;-62
2023/05/13 04:18:06;;;;;;;3.60;2.90;;;;;;;18.12;43.47;100443.66;104451;1272;70814;-62
2023/05/13 04:20:37;;;;;;;4.20;2.90;;;;;;;18.32;43.48;100443.86;104432;1259;73228;-62
2023/05/13 04:23:04;;;;;;;2.90;2.30;;;;;;;18.47;42.91;100444.52;104402;1256;61814;-63
2023/05/13 04:25:33;;;;;;;2.50;2.30;;;;;;;18.52;43.09;100445.48;104322;1266;60160;-62
2023/05/13 04:28:01;;;;;;;4.60;2.90;;;;;;;18.53;43.36;100451.05;104493;1252;73899;-62
2023/05/13 04:30:35;;;;;;;3.10;2.50;;;;;;;18.60;43.36;100453.27;104555;1256;69878;-62
2023/05/13 04:33:02;;;;;;;3.10;2.20;;;;;;;18.69;43.50;100451.68;104356;1268;74075;-62
2023/05/13 04:35:30;;;;;;;3.00;2.70;;;;;;;18.79;43.22;100451.02;104250;1266;62491;-62
2023/05/13 04:37:59;;;;;;;3.20;2.50;;;;;;;18.87;43.15;100454.07;104455;1250;61282;-61
2023/05/13 04:40:28;;;;;;;5.50;2.90;;;;;;;18.94;42.98;100452.35;104566;1253;73278;-62
2023/05/13 04:42:57;;;;;;;2.80;2.60;;;;;;;19.03;42.82;100453.79;104321;1256;69789;-61
2023/05/13 04:45:30;;;;;;;3.00;2.60;;;;;;;19.12;42.80;100456.20;104431;1263;72975;-62
2023/05/13 04:47:58;;;;;;;2.50;2.30;;;;;;;19.20;42.62;100455.29;104332;1253;63338;-62
2023/05/13 04:50:25;;;;;;;2.60;2.40;;;;;;;19.30;42.73;100452.86;104475;1250;61139;-62
2023/05/13 04:52:55;;;;;;;2.50;2.20;;;;;;;19.39;42.63;100454.21;104410;1268;74116;-62
2023/05/13 04:55:22;;;;;;;3.70;2.50;;;;;;;19.47;42.52;100454.57;104378;1259;69462;-62
2023/05/13 04:57:53;;;;;;;5.40;2.50;;;;;;;19.54;42.34;100454.62;104391;1257;72697;-61
2023/05/13 05:00:21;;;;;;;3.80;2.30;;;;;;;19.62;42.19;100455.17;104520;1258;61174;-62
2023/05/13 05:02:50;;;;;;;2.90;2.00;;;;;;;19.71;42.35;100452.41;104299;1254;62344;-62
2023/05/13 05:05:17;;;;;;;3.00;2.30;;;;;;;19.81;42.33;100452.85;104393;1267;74221;-63
2023/05/13 05:07:45;;;;;;;3.00;2.20;;;;;;;19.89;42.12;100454.23;104372;1258;70020;-60
2023/05/13 05:10:14;;;;;;;2.90;2.10;;;;;;;19.99;42.15;100453.77;104404;1267;73728;-63
2023/05/13 05:12:47;;;;;;;2.00;1.80;;;;;;;20.11;41.76;100454.33;104388;1265;60578;-63
2023/05/13 05:15:14;;;;;;;2.10;1.90;;;;;;;20.20;41.76;100450.33;104547;1256;61189;-62
2023/05/13 05:17:44;;;;;;;2.40;2.20;;;;;;;20.33;41.31;100451.73;104266;1255;73841;-65
2023/05/13 05:20:12;;;;;;;2.10;1.90;;;;;;;20.41;41.29;100446.15;104596;1259;70100;-63
2023/05/13 05:22:40;;;;;;;2.50;1.90;;;;;;;20.54;41.19;100449.16;104435;1271;72856;-62
2023/05/13 05:25:10;;;;;;;3.30;1.90;;;;;;;20.63;41.10;100449.28;104677;1258;60908;-64
2023/05/13 05:27:37;;;;;;;2.00;1.70;;;;;;;20.73;41.23;100450.48;104439;1258;62691;-62
2023/05/13 05:30:05;;;;;;;1.80;1.70;;;;;;;20.85;41.18;100446.80;104788;1255;74165;-63
2023/05/13 05:32:34;;;;;;;2.20;1.90;;;;;;;20.96;41.16;100448.27;104523;1258;71738;-63
2023/05/13 05:35:03;;;;;;;1.70;1.50;;;;;;;21.06;40.99;100447.96;104440;1254;73132;-62
2023/05/13 05:37:31;;;;;;;2.00;1.80;;;;;;;21.20;41.10;100450.08;104327;1256;62853;-61
2023/05/13 05:39:58;;;;;;;2.20;2.00;;;;;;;21.34;40.78;100454.19;104444;1259;60641;-63
2023/05/13 05:42:26;;;;;;;3.10;1.90;;;;;;;21.47;40.54;100451.66;104666;1253;75610;-62
2023/05/13 05:44:53;;;;;;;3.10;1.90;;;;;;;21.57;40.40;100456.11;104607;1269;71105;-61
2023/05/13 05:47:20;;;;;;;1.80;1.70;;;;;;;21.70;40.02;100454.23;104391;1253;72536;-63
2023/05/13 05:49:48;;;;;;;3.90;2.00;;;;;;;21.84;39.76;100457.55;104427;1256;60686;-62
2023/05/13 05:52:15;;;;;;;2.30;2.10;;;;;;;21.94;39.63;100453.77;104368;1251;61663;-62
2023/05/13 05:54:42;;;;;;;3.60;1.90;;;;;;;22.04;38.95;100456.96;104426;1256;75860;-62
2023/05/13 05:57:09;;;;;;;2.00;1.80;;;;;;;22.15;39.36;100457.85;104453;1256;69993;-62
2023/05/13 05:59:37;;;;;;;1.80;1.50;;;;;;;22.27;39.34;100456.77;104388;1257;73057;-60
2023/05/13 06:02:05;;;;;;;1.70;1.60;;;;;;;22.37;39.15;100456.89;104489;1257;63022;-61
2023/05/13 06:04:32;;;;;;;2.40;1.50;;;;;;;22.49;38.93;100456.98;104435;1251;60980;-60
2023/05/13 06:06:59;;;;;;;2.50;1.80;;;;;;;22.62;38.28;100458.06;104438;1258;74281;-61
2023/05/13 06:09:27;;;;;;;2.10;1.40;;;;;;;22.77;38.07;100459.42;104547;1256;70195;-65
2023/05/13 06:11:54;;;;;;;2.10;1.60;;;;;;;22.89;38.42;100458.23;104537;1255;73573;-62
2023/05/13 06:14:22;;;;;;;1.50;1.40;;;;;;;22.98;38.12;100457.53;104484;1267;60562;-62
2023/05/13 06:16:49;;;;;;;2.10;1.90;;;;;;;23.07;37.88;100455.04;104441;1257;60539;-61
2023/05/13 06:19:19;;;;;;;1.90;1.50;;;;;;;23.19;37.72;100458.50;104520;1251;73806;-63
2023/05/13 06:21:47;;;;;;;1.40;1.30;;;;;;;23.29;37.63;100458.80;104501;1260;71312;-65
2023/05/13 06:24:14;;;;;;;3.90;1.70;;;;;;;23.37;37.08;100455.90;104560;1253;73829;-62
2023/05/13 06:26:43;;;;;;;1.90;1.50;;;;;;;23.45;36.51;100452.41;104407;1257;62672;-62
2023/05/13 06:29:13;;;;;;;1.40;1.30;;;;;;;23.52;36.71;100454.52;104401;1257;60601;-62
2023/05/13 06:31:40;;;;;;;1.50;1.30;;;;;;;23.58;36.09;100453.45;104581;1257;73992;-62
2023/05/13 06:34:15;;;;;;;1.50;1.40;;;;;;;23.66;36.15;100456.90;104448;1269;69951;-62
2023/05/13 06:36:43;;;;;;;2.00;1.70;;;;;;;23.74;36.05;100459.88;104567;1260;74153;-62
2023/05/13 06:39:11;;;;;;;2.00;1.70;;;;;;;23.82;35.78;100458.08;104396;1256;60517;-64
2023/05/13 06:41:39;;;;;;;2.20;1.30;;;;;;;23.92;35.19;100461.70;104460;1257;60825;-64
2023/05/13 06:44:11;;;;;;;3.40;1.40;;;;;;;24.01;35.59;100457.95;104417;1267;75213;-65
2023/05/13 06:46:39;;;;;;;1.40;1.30;;;;;;;24.14;35.21;100455.51;104345;1254;71182;-64
2023/05/13 06:49:06;;;;;;;1.10;1.00;;;;;;;24.28;35.24;100461.08;104472;1257;75384;-64
2023/05/13 06:51:34;;;;;;;1.60;1.30;;;;;;;24.41;35.28;100458.02;104366;1258;60496;-63
2023/05/13 06:54:01;;;;;;;1.10;1.00;;;;;;;24.53;35.06;100456.23;104416;1265;62494;-66
2023/05/13 06:56:29;;;;;;;1.30;1.20;;;;;;;24.61;34.50;100455.19;104650;1258;74933;-61
2023/05/13 06:58:56;;;;;;;2.20;1.10;;;;;;;24.66;33.81;100453.48;104401;1254;69573;-61
2023/05/13 07:01:23;;;;;;;2.10;0.90;;;;;;;24.75;34.30;100453.09;104597;1257;73682;-62
2023/05/13 07:03:50;;;;;;;1.00;0.90;;;;;;;24.79;33.80;100450.20;104635;1255;60623;-62
2023/05/13 07:06:18;;;;;;;1.50;1.10;;;;;;;24.87;34.01;100449.09;104355;1266;60898;-62
2023/05/13 07:08:45;;;;;;;0.90;0.90;;;;;;;24.95;33.65;100449.81;104411;1258;73718;-62
2023/05/13 07:11:12;;;;;;;3.60;0.90;;;;;;;25.03;33.29;100447.98;104756;1259;70082;-62
2023/05/13 07:13:39;;;;;;;1.80;1.00;;;;;;;25.12;32.72;100445.60;104619;1256;73009;-63
2023/05/13 07:16:06;;;;;;;1.90;0.90;;;;;;;25.21;32.78;100441.16;104298;1259;60584;-60
2023/05/13 07:18:34;;;;;;;3.10;1.10;;;;;;;25.34;32.94;100445.42;104433;1256;60519;-62
2023/05/13 07:21:01;;;;;;;0.90;0.90;;;;;;;25.47;32.91;100444.56;104344;1254;74495;-64
2023/05/13 07:23:28;;;;;;;1.30;1.10;;;;;;;25.56;32.55;100440.30;104752;1258;69866;-62
2023/05/13 07:25:55;;;;;;;0.80;0.80;;;;;;;25.65;31.90;100440.16;104454;1266;72501;-62
2023/05/13 07:28:23;;;;;;;1.90;1.10;;;;;;;25.76;32.24;100440.77;104583;1264;60699;-62
2023/05/13 07:30:52;;;;;;;1.10;1.00;;;;;;;25.82;31.64;100443.45;104314;1259;60686;-63
2023/05/13 07:33:19;;;;;;;1.60;1.20;;;;;;;25.85;31.11;100438.68;104411;1260;74056;-64
2023/05/13 07:35:46;;;;;;;2.10;0.90;;;;;;;25.89;31.46;100439.41;104565;1266;70539;-62
2023/05/13 07:38:14;;;;;;;4.20;0.90;;;;;;;25.93;31.76;100438.83;104618;1253;72969;-64
2023/05/13 07:40:41;;;;;;;2.50;1.10;;;;;;;25.99;31.78;100439.13;104907;1259;62247;-64
2023/05/13 07:43:09;;;;;;;0.80;0.70;;;;;;;26.06;31.34;100436.67;104784;1257;63037;-63
2023/05/13 07:45:38;;;;;;;1.40;1.00;;;;;;;26.17;31.58;100433.38;104671;1259;73902;-63
2023/05/13 07:48:05;;;;;;;1.60;0.90;;;;;;;26.26;31.47;100435.53;105113;1260;69547;-64
2023/05/13 07:50:32;;;;;;;1.10;1.00;;;;;;;26.32;31.17;100435.97;105190;1256;73481;-63
2023/05/13 07:52:59;;;;;;;3.50;1.10;;;;;;;26.40;30.41;100432.73;104869;1251;60429;-63
2023/05/13 07:55:27;;;;;;;1.10;0.90;;;;;;;26.49;30.25;100438.34;105149;1260;60504;-63
2023/05/13 07:57:54;;;;;;;0.90;0.90;;;;;;;26.54;30.03;100431.23;104493;1256;76202;-65
2023/05/13 08:00:21;;;;;;;1.20;0.90;;;;;;;26.60;29.84;100435.36;104538;1257;70546;-64
2023/05/13 08:02:49;;;;;;;4.30;0.90;;;;;;;26.64;29.59;100439.42;104732;1255;73737;-65
2023/05/13 08:05:16;;;;;;;2.70;0.90;;;;;;;26.68;29.45;100432.90;104802;1256;61794;-64
2023/05/13 08:10:17;;;;;;;1.10;0.90;;;;;;;26.08;31.39;100432.94;101738;1289;601166;-63
2023/05/13 08:12:49;;;;;;;1.10;1.10;;;;;;;26.92;28.76;100435.55;103714;1270;60995;-63
2023/05/13 08:15:17;;;;;;;1.00;0.90;;;;;;;26.96;28.72;100432.13;103924;1263;61127;-63
2023/05/13 08:17:45;;;;;;;1.90;0.80;;;;;;;27.04;28.57;100428.48;103617;1267;72414;-64
2023/05/13 08:20:13;;;;;;;1.10;1.10;;;;;;;27.08;27.97;100428.61;103898;1265;69260;-63
2023/05/13 08:22:42;;;;;;;1.10;1.00;;;;;;;27.10;28.10;100427.85;103778;1282;73530;-65
2023/05/13 08:25:12;;;;;;;1.40;1.00;;;;;;;27.12;27.80;100423.66;103710;1270;60846;-68
2023/05/13 08:27:39;;;;;;;2.30;1.10;;;;;;;27.13;28.61;100424.88;103942;1264;60422;-63
2023/05/13 08:30:07;;;;;;;1.00;0.90;;;;;;;27.18;27.83;100423.50;104000;1263;73034;-64
2023/05/13 08:32:34;;;;;;;;;;;;;;;27.27;27.98;100421.71;103685;1270;69992;-62
2023/05/13 08:35:01;;;;;;;2.30;0.70;;;;;;;27.39;27.13;100414.50;103772;1263;74971;-63
2023/05/13 08:37:29;;;;;;;1.20;0.90;;;;;;;27.44;28.03;100410.41;104040;1280;60256;-64
2023/05/13 08:39:58;;;;;;;1.20;0.80;;;;;;;27.52;27.56;100409.81;103915;1264;60813;-63
2023/05/13 08:42:27;;;;;;;0.90;0.70;;;;;;;27.57;27.01;100407.67;104358;1257;73370;-63
2023/05/13 08:44:55;;;;;;;0.70;0.70;;;;;;;27.63;27.49;100409.38;104725;1259;70267;-63
2023/05/13 08:47:28;;;;;;;1.10;0.70;;;;;;;27.68;26.86;100401.16;104418;1257;73406;-64
2023/05/13 08:49:55;;;;;;;1.10;1.00;;;;;;;27.71;26.81;100399.05;104296;1256;63114;-63
2023/05/13 08:52:22;;;;;;;1.30;0.80;;;;;;;27.79;26.18;100396.02;104282;1259;62670;-64
2023/05/13 08:54:49;;;;;;;0.90;0.90;;;;;;;27.90;26.82;100399.64;104534;1258;74213;-62
2023/05/13 08:57:17;;;;;;;0.70;0.70;;;;;;;27.98;26.46;100397.52;104359;1272;71930;-62
2023/05/13 08:59:44;;;;;;;0.80;0.60;;;;;;;28.07;25.83;100398.77;104321;1259;73046;-63
2023/05/13 09:02:11;;;;;;;0.80;0.80;;;;;;;28.14;25.96;100397.61;104333;1256;60674;-62
2023/05/13 09:04:40;;;;;;;0.70;0.70;;;;;;;28.22;25.64;100396.26;104125;1260;60350;-61
2023/05/13 09:07:08;;;;;;;0.90;0.80;;;;;;;28.28;25.43;100394.19;103907;1266;73538;-62
2023/05/13 09:09:35;;;;;;;1.00;0.70;;;;;;;28.30;24.72;100387.44;104377;1255;71568;-62
2023/05/13 09:12:03;;;;;;;0.70;0.70;;;;;;;28.23;25.45;100378.83;104329;1261;72959;-62
2023/05/13 09:14:33;;;;;;;;;;;;;;;28.16;25.23;100382.81;104158;1263;60313;-61
2023/05/13 09:17:01;;;;;;;0.80;0.80;;;;;;;28.23;25.20;100380.10;104266;1257;61590;-63
2023/05/13 09:19:28;;;;;;;;;;;;;;;28.19;25.02;100377.29;104294;1257;73310;-62
2023/05/13 09:21:56;;;;;;;0.70;0.50;;;;;;;28.21;24.73;100379.63;104200;1275;70415;-63
2023/05/13 09:24:23;;;;;;;1.00;1.00;;;;;;;28.10;24.37;100367.79;104484;1260;75230;-63
2023/05/13 09:26:50;;;;;;;2.20;0.90;;;;;;;28.06;24.63;100359.04;104542;1254;62709;-62
2023/05/13 09:29:17;;;;;;;1.00;0.90;;;;;;;27.99;25.35;100337.39;104726;1254;61296;-62
2023/05/13 09:31:47;;;;;;;0.50;0.50;;;;;;;28.18;25.31;100354.91;104526;1255;74113;-63
2023/05/13 09:34:35;;;;;;;1.30;0.80;;;;;;;28.34;25.15;100351.15;104561;1260;69493;-62
2023/05/13 09:37:07;;;;;;;0.80;0.70;;;;;;;28.53;25.05;100346.27;104574;1256;73989;-63
2023/05/13 09:39:40;;;;;;;0.50;0.50;;;;;;;28.66;25.00;100344.37;104458;1254;60536;-64
2023/05/13 09:42:15;;;;;;;2.70;0.70;;;;;;;28.78;24.55;100335.25;104610;1259;60473;-62
2023/05/13 09:44:46;;;;;;;0.60;0.60;;;;;;;28.88;24.56;100335.30;104808;1259;72524;-63
2023/05/13 09:47:13;;;;;;;1.70;0.70;;;;;;;28.98;23.89;100329.02;104451;1259;70851;-62
2023/05/13 09:49:42;;;;;;;1.00;0.70;;;;;;;29.02;24.47;100329.96;104289;1264;73245;-64
2023/05/13 09:52:10;;;;;;;1.60;1.20;;;;;;;29.10;24.56;100324.80;104885;1256;61624;-62
2023/05/13 09:54:37;;;;;;;1.80;0.60;;;;;;;29.18;24.76;100326.80;104613;1257;62414;-63
2023/05/13 09:57:05;;;;;;;1.10;0.70;;;;;;;29.31;24.56;100325.54;104396;1260;73078;-64
2023/05/13 09:59:33;;;;;;;0.60;0.60;;;;;;;29.41;24.17;100325.41;104436;1254;69790;-63
2023/05/13 10:02:03;;;;;;;1.50;0.70;;;;;;;29.46;23.47;100320.98;104584;1254;73032;-63
2023/05/13 10:04:30;;;;;;;0.70;0.70;;;;;;;29.46;23.36;100319.40;104475;1254;60722;-63
2023/05/13 10:06:58;;;;;;;1.90;0.60;;;;;;;29.53;23.13;100317.81;104360;1256;60744;-63
2023/05/13 10:09:29;;;;;;;0.80;0.60;;;;;;;29.69;23.20;100316.64;104534;1267;75026;-63
2023/05/13 10:11:56;;;;;;;0.80;0.80;;;;;;;29.69;23.08;100319.15;104539;1257;70035;-64
2023/05/13 10:14:23;;;;;;;0.50;0.50;;;;;;;29.70;23.00;100316.49;104524;1258;71648;-64
2023/05/13 10:16:50;;;;;;;3.90;0.60;;;;;;;29.77;23.22;100314.96;104331;1251;60468;-64
2023/05/13 10:19:18;;;;;;;0.40;0.40;;;;;;;29.83;22.93;100316.73;104555;1261;62094;-63
2023/05/13 10:21:45;;;;;;;2.80;0.90;;;;;;;29.92;23.10;100310.78;104222;1253;73641;-64
2023/05/13 10:24:13;;;;;;;1.00;0.80;;;;;;;29.99;22.70;100305.85;104449;1251;69238;-64
2023/05/13 10:26:42;;;;;;;0.60;0.50;;;;;;;30.00;22.07;100305.16;104603;1257;72767;-64
2023/05/13 10:29:10;;;;;;;1.50;0.70;;;;;;;29.97;22.14;100308.44;104881;1251;60668;-65
2023/05/13 10:31:37;;;;;;;1.90;0.60;;;;;;;29.86;22.47;100313.77;104628;1257;60596;-64
2023/05/13 10:34:04;;;;;;;0.60;0.60;;;;;;;29.73;22.13;100301.16;104335;1269;73499;-63
2023/05/13 10:36:43;;;;;;;1.80;0.50;;;;;;;29.67;21.87;100298.17;104399;1257;71348;-63
2023/05/13 10:39:17;;;;;;;0.80;0.50;;;;;;;29.72;22.27;100299.81;104565;1253;72723;-62
2023/05/13 10:42:25;;;;;;;0.70;0.70;;;;;;;29.72;22.72;100296.44;104532;1256;60594;-63
2023/05/13 10:44:54;;;;;;;0.70;0.70;;;;;;;29.69;21.90;100294.35;104579;1253;62191;-62
2023/05/13 10:47:22;;;;;;;2.70;0.70;;;;;;;29.62;22.37;100292.60;104640;1256;72937;-63
2023/05/13 10:49:53;;;;;;;6.00;0.60;;;;;;;29.58;22.11;100295.70;105148;1253;70131;-63
2023/05/13 10:52:20;;;;;;;2.60;0.60;;;;;;;29.54;22.29;100290.43;104956;1253;71985;-63
2023/05/13 10:55:03;;;;;;;0.90;0.90;;;;;;;29.53;22.31;100293.48;104677;1267;60896;-63
2023/05/13 10:57:36;;;;;;;1.90;0.70;;;;;;;29.58;22.46;100298.13;104427;1258;60184;-62
2023/05/13 11:00:17;;;;;;;0.60;0.60;;;;;;;29.61;22.33;100290.73;104344;1270;73131;-62
2023/05/13 11:02:45;;;;;;;1.00;0.80;;;;;;;29.68;21.93;100282.94;104272;1254;69841;-64
2023/05/13 11:05:19;;;;;;;2.00;0.70;;;;;;;29.77;22.16;100286.86;104950;1256;72696;-65
2023/05/13 11:07:56;;;;;;;0.90;0.70;;;;;;;29.82;21.51;100286.27;104547;1256;60134;-65
2023/05/13 11:10:28;;;;;;;0.80;0.60;;;;;;;29.87;21.90;100289.42;104730;1256;59875;-63
2023/05/13 11:13:14;;;;;;;3.00;0.80;;;;;;;29.95;21.61;100282.63;104320;1258;72966;-65
2023/05/13 11:15:46;;;;;;;1.10;0.70;;;;;;;29.94;20.89;100283.64;104577;1256;69547;-62
2023/05/13 11:18:14;;;;;;;0.90;0.80;;;;;;;29.86;21.65;100280.87;104529;1256;72769;-63
2023/05/13 11:20:46;;;;;;;0.90;0.60;;;;;;;29.83;21.36;100281.21;104488;1264;61314;-62
2023/05/13 11:23:19;;;;;;;;;;;;;;;29.78;20.76;100274.73;104471;1260;62901;-62
2023/05/13 11:25:46;;;;;;;;;;;;;;;29.76;21.50;100273.38;104474;1255;73398;-62
2023/05/13 11:28:19;;;;;;;0.80;0.60;;;;;;;29.73;21.32;100274.23;107960;1251;70152;-63
2023/05/13 11:30:56;;;;;;;1.50;0.80;;;;;;;29.71;21.86;100274.64;106800;1253;73115;-62